createdAt,value
2017-12-16T00:00:06.504Z,997.8
2017-12-16T00:01:08.114Z,997.9
2017-12-16T00:02:09.726Z,997.9
2017-12-16T00:03:11.342Z,997.9
2017-12-16T00:04:12.947Z,997.9
2017-12-16T00:05:14.563Z,997.8
2017-12-16T00:06:16.179Z,997.9
2017-12-16T00:07:17.784Z,997.9
2017-12-16T00:08:19.400Z,998.0
2017-12-16T00:09:21.010Z,998.0
2017-12-16T00:10:22.620Z,998.0
2017-12-16T00:11:24.231Z,998.0
2017-12-16T00:12:25.842Z,998.0
2017-12-16T00:13:27.455Z,998.0
2017-12-16T00:14:29.067Z,998.0
2017-12-16T00:15:30.726Z,998.1
2017-12-16T00:16:32.284Z,998.1
2017-12-16T00:17:33.895Z,998.1
2017-12-16T00:18:35.505Z,998.1
2017-12-16T00:19:37.119Z,998.1
2017-12-16T00:20:38.734Z,998.0
2017-12-16T00:21:40.345Z,998.1
2017-12-16T00:22:41.955Z,998.1
2017-12-16T00:23:43.569Z,998.1
2017-12-16T00:24:45.180Z,998.1
2017-12-16T00:25:46.790Z,998.1
2017-12-16T00:26:48.402Z,998.1
2017-12-16T00:27:50.015Z,998.2
2017-12-16T00:28:51.624Z,998.2
2017-12-16T00:29:53.234Z,998.2
2017-12-16T00:30:54.846Z,998.2
2017-12-16T00:31:56.457Z,998.2
2017-12-16T00:32:58.070Z,998.2
2017-12-16T00:33:59.680Z,998.3
2017-12-16T00:35:01.293Z,998.2
2017-12-16T00:36:02.903Z,998.3
2017-12-16T00:37:04.542Z,998.3
2017-12-16T00:38:06.154Z,998.3
2017-12-16T00:39:07.775Z,998.3
2017-12-16T00:40:09.379Z,998.3
2017-12-16T00:41:10.996Z,998.3
2017-12-16T00:42:12.611Z,998.3
2017-12-16T00:43:14.221Z,998.3
2017-12-16T00:44:15.831Z,998.3
2017-12-16T00:45:17.441Z,998.3
2017-12-16T00:46:19.053Z,998.3
2017-12-16T00:47:20.663Z,998.4
2017-12-16T00:48:22.272Z,998.4
2017-12-16T00:49:23.887Z,998.4
2017-12-16T00:50:29.015Z,998.3
2017-12-16T00:51:30.625Z,998.4
2017-12-16T00:52:32.237Z,998.4
2017-12-16T00:53:33.851Z,998.4
2017-12-16T00:54:35.463Z,998.4
2017-12-16T00:55:37.093Z,998.4
2017-12-16T00:56:38.706Z,998.4
2017-12-16T00:57:40.316Z,998.4
2017-12-16T00:58:41.929Z,998.4
2017-12-16T00:59:43.538Z,998.4
2017-12-16T01:00:45.148Z,998.4
2017-12-16T01:01:46.759Z,998.4
2017-12-16T01:02:48.373Z,998.4
2017-12-16T01:03:49.987Z,998.4
2017-12-16T01:04:51.597Z,998.4
2017-12-16T01:05:53.207Z,998.4
2017-12-16T01:06:54.817Z,998.5
2017-12-16T01:07:56.428Z,998.5
2017-12-16T01:08:58.041Z,998.5
2017-12-16T01:09:59.653Z,998.6
2017-12-16T01:11:01.268Z,998.6
2017-12-16T01:12:02.875Z,998.6
2017-12-16T01:13:04.491Z,998.6
2017-12-16T01:14:06.096Z,998.6
2017-12-16T01:15:07.709Z,998.6
2017-12-16T01:16:09.319Z,998.6
2017-12-16T01:17:10.933Z,998.6
2017-12-16T01:18:12.544Z,998.6
2017-12-16T01:19:14.155Z,998.7
2017-12-16T01:20:15.765Z,998.7
2017-12-16T01:21:17.378Z,998.7
2017-12-16T01:22:18.989Z,998.7
2017-12-16T01:23:20.599Z,998.7
2017-12-16T01:24:22.211Z,998.7
2017-12-16T01:25:23.821Z,998.8
2017-12-16T01:26:25.433Z,998.8
2017-12-16T01:27:27.047Z,998.8
2017-12-16T01:28:28.654Z,998.8
2017-12-16T01:29:30.268Z,998.8
2017-12-16T01:30:31.881Z,998.8
2017-12-16T01:31:33.491Z,998.9
2017-12-16T01:32:35.108Z,998.9
2017-12-16T01:33:36.715Z,998.9
2017-12-16T01:34:38.326Z,998.9
2017-12-16T01:35:39.939Z,998.9
2017-12-16T01:36:41.549Z,998.9
2017-12-16T01:37:43.165Z,998.9
2017-12-16T01:38:44.777Z,998.9
2017-12-16T01:39:46.390Z,999.0
2017-12-16T01:40:48.052Z,999.0
2017-12-16T01:41:49.662Z,999.0
2017-12-16T01:42:51.274Z,999.0
2017-12-16T01:43:52.885Z,999.0
2017-12-16T01:44:54.496Z,999.0
2017-12-16T01:45:56.108Z,999.0
2017-12-16T01:46:57.719Z,999.0
2017-12-16T01:47:59.328Z,999.1
2017-12-16T01:49:00.941Z,999.1
2017-12-16T01:50:02.550Z,999.1
2017-12-16T01:51:04.162Z,999.1
2017-12-16T01:52:05.775Z,999.1
2017-12-16T01:53:07.385Z,999.1
2017-12-16T01:54:08.998Z,999.1
2017-12-16T01:55:10.610Z,999.1
2017-12-16T01:56:12.222Z,999.1
2017-12-16T01:57:13.831Z,999.1
2017-12-16T01:58:15.442Z,999.2
2017-12-16T01:59:17.050Z,999.2
2017-12-16T02:00:18.665Z,999.2
2017-12-16T02:01:20.279Z,999.3
2017-12-16T02:02:21.888Z,999.2
2017-12-16T02:03:23.497Z,999.3
2017-12-16T02:04:25.108Z,999.2
2017-12-16T02:05:26.721Z,999.3
2017-12-16T02:06:28.330Z,999.3
2017-12-16T02:07:29.947Z,999.3
2017-12-16T02:08:31.566Z,999.3
2017-12-16T02:09:33.169Z,999.3
2017-12-16T02:10:34.782Z,999.3
2017-12-16T02:11:36.391Z,999.3
2017-12-16T02:12:38.008Z,999.3
2017-12-16T02:13:39.619Z,999.3
2017-12-16T02:14:41.233Z,999.4
2017-12-16T02:15:42.847Z,999.3
2017-12-16T02:16:44.459Z,999.4
2017-12-16T02:17:46.067Z,999.4
2017-12-16T02:18:47.679Z,999.5
2017-12-16T02:19:49.289Z,999.4
2017-12-16T02:20:50.903Z,999.5
2017-12-16T02:21:52.513Z,999.4
2017-12-16T02:22:54.131Z,999.5
2017-12-16T02:23:55.738Z,999.5
2017-12-16T02:24:57.351Z,999.5
2017-12-16T02:25:58.961Z,999.5
2017-12-16T02:27:00.571Z,999.5
2017-12-16T02:28:02.182Z,999.5
2017-12-16T02:29:03.795Z,999.5
2017-12-16T02:30:05.408Z,999.4
2017-12-16T02:31:07.078Z,999.5
2017-12-16T02:32:08.634Z,999.5
2017-12-16T02:33:10.246Z,999.5
2017-12-16T02:34:11.859Z,999.5
2017-12-16T02:35:13.468Z,999.5
2017-12-16T02:36:15.082Z,999.5
2017-12-16T02:37:16.694Z,999.5
2017-12-16T02:38:18.305Z,999.6
2017-12-16T02:39:19.914Z,999.6
2017-12-16T02:40:21.527Z,999.6
2017-12-16T02:41:23.138Z,999.6
2017-12-16T02:42:24.751Z,999.6
2017-12-16T02:43:26.365Z,999.6
2017-12-16T02:44:27.976Z,999.6
2017-12-16T02:45:29.584Z,999.6
2017-12-16T02:46:31.196Z,999.6
2017-12-16T02:47:32.807Z,999.6
2017-12-16T02:48:34.420Z,999.6
2017-12-16T02:49:36.031Z,999.6
2017-12-16T02:50:37.645Z,999.6
2017-12-16T02:51:39.261Z,999.6
2017-12-16T02:52:40.874Z,999.6
2017-12-16T02:53:42.496Z,999.6
2017-12-16T02:54:44.109Z,999.7
2017-12-16T02:55:45.723Z,999.7
2017-12-16T02:56:47.335Z,999.7
2017-12-16T02:57:48.947Z,999.7
2017-12-16T02:58:50.557Z,999.7
2017-12-16T02:59:52.168Z,999.7
2017-12-16T03:00:53.780Z,999.7
2017-12-16T03:01:55.392Z,999.7
2017-12-16T03:02:57.003Z,999.7
2017-12-16T03:03:58.615Z,999.7
2017-12-16T03:05:00.228Z,999.7
2017-12-16T03:06:01.841Z,999.7
2017-12-16T03:07:03.450Z,999.7
2017-12-16T03:08:05.062Z,999.7
2017-12-16T03:09:06.673Z,999.7
2017-12-16T03:10:08.284Z,999.8
2017-12-16T03:11:09.894Z,999.8
2017-12-16T03:12:11.507Z,999.8
2017-12-16T03:13:13.123Z,999.8
2017-12-16T03:14:14.735Z,999.8
2017-12-16T03:15:16.341Z,999.8
2017-12-16T03:16:17.949Z,999.8
2017-12-16T03:17:19.566Z,999.9
2017-12-16T03:18:21.177Z,999.9
2017-12-16T03:19:22.792Z,999.9
2017-12-16T03:20:24.404Z,999.9
2017-12-16T03:21:26.016Z,999.9
2017-12-16T03:22:27.626Z,999.9
2017-12-16T03:23:29.236Z,999.9
2017-12-16T03:24:30.849Z,1000.0
2017-12-16T03:25:32.464Z,1000.0
2017-12-16T03:26:34.079Z,1000.0
2017-12-16T03:27:35.692Z,1000.0
2017-12-16T03:28:37.307Z,1000.1
2017-12-16T03:29:38.925Z,1000.1
2017-12-16T03:30:40.538Z,1000.1
2017-12-16T03:31:42.150Z,1000.1
2017-12-16T03:32:43.764Z,1000.1
2017-12-16T03:33:45.376Z,1000.2
2017-12-16T03:34:46.989Z,1000.2
2017-12-16T03:35:48.603Z,1000.2
2017-12-16T03:36:50.214Z,1000.2
2017-12-16T03:37:51.830Z,1000.2
2017-12-16T03:38:53.441Z,1000.2
2017-12-16T03:39:55.052Z,1000.2
2017-12-16T03:40:56.668Z,1000.2
2017-12-16T03:41:58.279Z,1000.2
2017-12-16T03:42:59.893Z,1000.2
2017-12-16T03:44:01.506Z,1000.2
2017-12-16T03:45:03.116Z,1000.2
2017-12-16T03:46:04.729Z,1000.3
2017-12-16T03:47:06.342Z,1000.3
2017-12-16T03:48:07.964Z,1000.3
2017-12-16T03:49:09.576Z,1000.3
2017-12-16T03:50:11.186Z,1000.4
2017-12-16T03:51:12.798Z,1000.4
2017-12-16T03:52:14.412Z,1000.4
2017-12-16T03:53:16.027Z,1000.4
2017-12-16T03:54:17.642Z,1000.4
2017-12-16T03:55:19.260Z,1000.5
2017-12-16T03:56:20.872Z,1000.4
2017-12-16T03:57:22.485Z,1000.5
2017-12-16T03:58:24.096Z,1000.5
2017-12-16T03:59:25.707Z,1000.5
2017-12-16T04:00:27.319Z,1000.5
2017-12-16T04:01:28.932Z,1000.5
2017-12-16T04:02:30.546Z,1000.5
2017-12-16T04:03:32.160Z,1000.5
2017-12-16T04:04:33.770Z,1000.5
2017-12-16T04:05:35.381Z,1000.5
2017-12-16T04:06:37.054Z,1000.5
2017-12-16T04:07:38.618Z,1000.6
2017-12-16T04:08:40.228Z,1000.5
2017-12-16T04:09:41.842Z,1000.6
2017-12-16T04:10:43.457Z,1000.6
2017-12-16T04:11:45.071Z,1000.5
2017-12-16T04:12:46.682Z,1000.6
2017-12-16T04:13:48.292Z,1000.6
2017-12-16T04:14:49.904Z,1000.6
2017-12-16T04:15:51.519Z,1000.6
2017-12-16T04:16:53.131Z,1000.6
2017-12-16T04:17:54.744Z,1000.5
2017-12-16T04:18:56.355Z,1000.6
2017-12-16T04:19:57.971Z,1000.5
2017-12-16T04:20:59.582Z,1000.6
2017-12-16T04:22:01.194Z,1000.5
2017-12-16T04:23:02.814Z,1000.6
2017-12-16T04:24:04.435Z,1000.6
2017-12-16T04:25:06.044Z,1000.6
2017-12-16T04:26:07.652Z,1000.7
2017-12-16T04:27:09.271Z,1000.6
2017-12-16T04:28:10.882Z,1000.6
2017-12-16T04:29:12.494Z,1000.6
2017-12-16T04:30:14.108Z,1000.7
2017-12-16T04:31:15.721Z,1000.6
2017-12-16T04:32:17.334Z,1000.6
2017-12-16T04:33:18.947Z,1000.7
2017-12-16T04:34:20.550Z,1000.6
2017-12-16T04:35:22.171Z,1000.6
2017-12-16T04:36:23.784Z,1000.6
2017-12-16T04:37:25.398Z,1000.7
2017-12-16T04:38:27.012Z,1000.7
2017-12-16T04:39:28.631Z,1000.7
2017-12-16T04:40:30.239Z,1000.7
2017-12-16T04:41:31.849Z,1000.7
2017-12-16T04:42:33.465Z,1000.8
2017-12-16T04:43:35.079Z,1000.8
2017-12-16T04:44:36.690Z,1000.8
2017-12-16T04:45:38.304Z,1000.8
2017-12-16T04:46:39.920Z,1000.8
2017-12-16T04:47:41.530Z,1000.8
2017-12-16T04:48:43.138Z,1000.8
2017-12-16T04:49:44.754Z,1000.8
2017-12-16T04:50:46.366Z,1000.9
2017-12-16T04:51:47.976Z,1000.9
2017-12-16T04:52:49.589Z,1000.9
2017-12-16T04:53:51.202Z,1000.9
2017-12-16T04:54:52.813Z,1000.9
2017-12-16T04:55:54.424Z,1000.9
2017-12-16T04:56:56.035Z,1001.0
2017-12-16T04:57:57.646Z,1000.9
2017-12-16T04:58:59.258Z,1000.9
2017-12-16T05:00:00.871Z,1000.9
2017-12-16T05:01:02.631Z,1000.9
2017-12-16T05:02:04.242Z,1000.9
2017-12-16T05:03:05.854Z,1001.0
2017-12-16T05:04:07.470Z,1001.0
2017-12-16T05:05:09.083Z,1001.0
2017-12-16T05:06:10.694Z,1001.0
2017-12-16T05:07:12.306Z,1000.9
2017-12-16T05:08:13.922Z,1001.0
2017-12-16T05:09:15.534Z,1001.0
2017-12-16T05:10:17.145Z,1000.9
2017-12-16T05:11:18.755Z,1001.0
2017-12-16T05:12:20.367Z,1000.9
2017-12-16T05:13:21.981Z,1001.0
2017-12-16T05:14:23.598Z,1001.0
2017-12-16T05:15:25.209Z,1001.1
2017-12-16T05:16:26.824Z,1001.0
2017-12-16T05:17:28.432Z,1001.1
2017-12-16T05:18:30.046Z,1001.0
2017-12-16T05:19:31.659Z,1001.0
2017-12-16T05:20:33.269Z,1001.1
2017-12-16T05:21:34.885Z,1001.1
2017-12-16T05:22:36.499Z,1001.1
2017-12-16T05:23:38.125Z,1001.1
2017-12-16T05:24:39.734Z,1001.1
2017-12-16T05:25:41.344Z,1001.1
2017-12-16T05:26:42.958Z,1001.1
2017-12-16T05:27:44.571Z,1001.1
2017-12-16T05:28:46.185Z,1001.1
2017-12-16T05:29:47.799Z,1001.1
2017-12-16T05:30:49.409Z,1001.2
2017-12-16T05:31:51.024Z,1001.1
2017-12-16T05:32:52.635Z,1001.2
2017-12-16T05:33:54.248Z,1001.2
2017-12-16T05:34:55.861Z,1001.2
2017-12-16T05:35:57.480Z,1001.2
2017-12-16T05:36:59.092Z,1001.3
2017-12-16T05:38:00.703Z,1001.3
2017-12-16T05:39:02.315Z,1001.3
2017-12-16T05:40:03.934Z,1001.3
2017-12-16T05:41:05.547Z,1001.3
2017-12-16T05:42:07.162Z,1001.3
2017-12-16T05:43:08.775Z,1001.3
2017-12-16T05:44:10.388Z,1001.3
2017-12-16T05:45:12.000Z,1001.3
2017-12-16T05:46:13.618Z,1001.3
2017-12-16T05:47:15.232Z,1001.3
2017-12-16T05:48:16.844Z,1001.3
2017-12-16T05:49:18.458Z,1001.3
2017-12-16T05:50:20.080Z,1001.4
2017-12-16T05:51:21.694Z,1001.4
2017-12-16T05:52:23.305Z,1001.4
2017-12-16T05:53:24.918Z,1001.5
2017-12-16T05:54:26.534Z,1001.5
2017-12-16T05:55:28.147Z,1001.5
2017-12-16T05:56:29.760Z,1001.5
2017-12-16T05:57:31.371Z,1001.5
2017-12-16T05:58:32.990Z,1001.6
2017-12-16T05:59:34.601Z,1001.6
2017-12-16T06:00:36.215Z,1001.6
2017-12-16T06:01:37.826Z,1001.7
2017-12-16T06:02:39.438Z,1001.6
2017-12-16T06:03:41.057Z,1001.6
2017-12-16T06:04:43.209Z,1001.6
2017-12-16T06:05:44.823Z,1001.7
2017-12-16T06:06:46.446Z,1001.6
2017-12-16T06:07:48.056Z,1001.6
2017-12-16T06:08:49.807Z,1001.6
2017-12-16T06:09:51.587Z,1001.7
2017-12-16T06:10:54.105Z,1001.6
2017-12-16T06:11:55.674Z,1001.7
2017-12-16T06:12:57.334Z,1001.7
2017-12-16T06:13:59.072Z,1001.7
2017-12-16T06:15:00.762Z,1001.7
2017-12-16T06:16:02.399Z,1001.7
2017-12-16T06:17:04.024Z,1001.7
2017-12-16T06:18:05.639Z,1001.8
2017-12-16T06:19:07.255Z,1001.8
2017-12-16T06:20:09.008Z,1001.8
2017-12-16T06:21:11.980Z,1001.7
2017-12-16T06:22:13.600Z,1001.8
2017-12-16T06:23:15.221Z,1001.8
2017-12-16T06:24:16.921Z,1001.8
2017-12-16T06:25:18.589Z,1001.8
2017-12-16T06:26:20.244Z,1001.9
2017-12-16T06:27:21.926Z,1001.9
2017-12-16T06:28:23.543Z,1001.8
2017-12-16T06:29:25.175Z,1001.9
2017-12-16T06:30:26.876Z,1001.9
2017-12-16T06:31:28.509Z,1001.9
2017-12-16T06:32:30.122Z,1001.9
2017-12-16T06:33:31.793Z,1002.0
2017-12-16T06:34:33.579Z,1002.0
2017-12-16T06:35:35.230Z,1002.0
2017-12-16T06:36:36.914Z,1002.1
2017-12-16T06:37:38.557Z,1002.1
2017-12-16T06:38:40.186Z,1002.1
2017-12-16T06:39:41.844Z,1002.1
2017-12-16T06:40:43.507Z,1002.2
2017-12-16T06:41:45.192Z,1002.1
2017-12-16T06:42:46.898Z,1002.2
2017-12-16T06:43:48.603Z,1002.1
2017-12-16T06:44:50.249Z,1002.2
2017-12-16T06:45:51.894Z,1002.2
2017-12-16T06:46:53.513Z,1002.2
2017-12-16T06:47:55.180Z,1002.2
2017-12-16T06:48:56.815Z,1002.3
2017-12-16T06:49:58.476Z,1002.3
2017-12-16T06:51:00.485Z,1002.3
2017-12-16T06:52:02.160Z,1002.3
2017-12-16T06:53:03.804Z,1002.3
2017-12-16T06:54:05.420Z,1002.3
2017-12-16T06:55:07.072Z,1002.3
2017-12-16T06:56:08.718Z,1002.3
2017-12-16T06:57:10.584Z,1002.2
2017-12-16T06:58:12.200Z,1002.3
2017-12-16T06:59:13.824Z,1002.3
2017-12-16T07:00:15.510Z,1002.3
2017-12-16T07:01:17.161Z,1002.3
2017-12-16T07:02:18.817Z,1002.4
2017-12-16T07:03:20.548Z,1002.4
2017-12-16T07:04:22.214Z,1002.3
2017-12-16T07:05:23.884Z,1002.3
2017-12-16T07:06:25.565Z,1002.3
2017-12-16T07:07:27.183Z,1002.4
2017-12-16T07:08:29.313Z,1002.4
2017-12-16T07:09:30.959Z,1002.4
2017-12-16T07:10:32.645Z,1002.4
2017-12-16T07:11:34.252Z,1002.5
2017-12-16T07:12:35.863Z,1002.5
2017-12-16T07:13:37.582Z,1002.6
2017-12-16T07:14:39.193Z,1002.6
2017-12-16T07:15:41.422Z,1002.6
2017-12-16T07:16:42.992Z,1002.6
2017-12-16T07:17:44.676Z,1002.6
2017-12-16T07:18:46.291Z,1002.7
2017-12-16T07:19:47.907Z,1002.6
2017-12-16T07:20:49.527Z,1002.7
2017-12-16T07:21:51.150Z,1002.7
2017-12-16T07:22:52.861Z,1002.7
2017-12-16T07:23:54.463Z,1002.7
2017-12-16T07:24:56.104Z,1002.7
2017-12-16T07:25:57.834Z,1002.7
2017-12-16T07:26:59.448Z,1002.8
2017-12-16T07:28:01.127Z,1002.8
2017-12-16T07:29:02.770Z,1002.7
2017-12-16T07:30:04.436Z,1002.7
2017-12-16T07:31:06.056Z,1002.8
2017-12-16T07:32:07.706Z,1002.8
2017-12-16T07:33:09.319Z,1002.8
2017-12-16T07:34:10.983Z,1002.8
2017-12-16T07:35:12.544Z,1002.9
2017-12-16T07:36:14.166Z,1002.9
2017-12-16T07:37:15.781Z,1002.9
2017-12-16T07:38:17.491Z,1002.9
2017-12-16T07:39:19.120Z,1003.0
2017-12-16T07:40:20.728Z,1002.9
2017-12-16T07:41:22.537Z,1002.9
2017-12-16T07:42:24.173Z,1002.9
2017-12-16T07:43:25.870Z,1003.0
2017-12-16T07:44:27.528Z,1003.0
2017-12-16T07:45:29.146Z,1003.1
2017-12-16T07:46:30.910Z,1003.1
2017-12-16T07:47:32.530Z,1003.2
2017-12-16T07:48:34.149Z,1003.1
2017-12-16T07:49:35.877Z,1003.1
2017-12-16T07:50:37.491Z,1003.2
2017-12-16T07:51:39.138Z,1003.2
2017-12-16T07:52:40.752Z,1003.2
2017-12-16T07:53:42.367Z,1003.2
2017-12-16T07:54:43.985Z,1003.2
2017-12-16T07:55:45.598Z,1003.3
2017-12-16T07:56:47.210Z,1003.3
2017-12-16T07:57:55.220Z,1003.3
2017-12-16T07:58:56.862Z,1003.3
2017-12-16T07:59:58.480Z,1003.4
2017-12-16T08:01:00.138Z,1003.4
2017-12-16T08:02:02.642Z,1003.4
2017-12-16T08:03:05.078Z,1003.5
2017-12-16T08:04:07.545Z,1003.5
2017-12-16T08:05:12.358Z,1003.5
2017-12-16T08:06:13.977Z,1003.6
2017-12-16T08:07:15.595Z,1003.6
2017-12-16T08:08:18.734Z,1003.6
2017-12-16T08:09:23.229Z,1003.6
2017-12-16T08:10:26.747Z,1003.6
2017-12-16T08:11:29.332Z,1003.6
2017-12-16T08:12:32.457Z,1003.7
2017-12-16T08:13:34.599Z,1003.6
2017-12-16T08:14:36.769Z,1003.7
2017-12-16T08:15:38.974Z,1003.7
2017-12-16T08:16:41.740Z,1003.8
2017-12-16T08:17:47.528Z,1003.8
2017-12-16T08:18:50.482Z,1003.8
2017-12-16T08:19:54.197Z,1003.9
2017-12-16T08:20:57.094Z,1003.9
2017-12-16T08:21:59.986Z,1003.9
2017-12-16T08:23:03.260Z,1003.9
2017-12-16T08:24:04.878Z,1003.9
2017-12-16T08:25:07.152Z,1003.9
2017-12-16T08:26:10.013Z,1004.0
2017-12-16T08:27:12.914Z,1004.0
2017-12-16T08:28:14.531Z,1004.0
2017-12-16T08:29:16.154Z,1004.0
2017-12-16T08:30:17.769Z,1003.9
2017-12-16T08:31:19.391Z,1003.9
2017-12-16T08:32:23.428Z,1004.0
2017-12-16T08:33:25.045Z,1004.0
2017-12-16T08:34:27.627Z,1004.0
2017-12-16T08:35:29.344Z,1004.0
2017-12-16T08:36:31.516Z,1004.1
2017-12-16T08:37:37.077Z,1004.1
2017-12-16T08:38:38.696Z,1004.1
2017-12-16T08:39:40.314Z,1004.1
2017-12-16T08:40:43.165Z,1004.1
2017-12-16T08:41:44.784Z,1004.2
2017-12-16T08:42:46.403Z,1004.2
2017-12-16T08:43:48.023Z,1004.2
2017-12-16T08:44:49.791Z,1004.3
2017-12-16T08:45:52.709Z,1004.3
2017-12-16T08:46:54.328Z,1004.4
2017-12-16T08:48:00.163Z,1004.4
2017-12-16T08:49:02.363Z,1004.4
2017-12-16T08:50:03.982Z,1004.4
2017-12-16T08:51:06.328Z,1004.4
2017-12-16T08:52:09.430Z,1004.4
2017-12-16T08:53:11.808Z,1004.4
2017-12-16T08:54:14.851Z,1004.4
2017-12-16T08:55:17.183Z,1004.5
2017-12-16T08:56:20.146Z,1004.5
2017-12-16T08:57:23.182Z,1004.6
2017-12-16T08:58:24.797Z,1004.6
2017-12-16T08:59:26.418Z,1004.6
2017-12-16T09:00:28.035Z,1004.6
2017-12-16T09:01:29.655Z,1004.6
2017-12-16T09:02:32.617Z,1004.6
2017-12-16T09:03:34.234Z,1004.6
2017-12-16T09:04:35.852Z,1004.7
2017-12-16T09:05:37.507Z,1004.7
2017-12-16T09:06:39.093Z,1004.7
2017-12-16T09:07:45.250Z,1004.7
2017-12-16T09:08:45.931Z,1004.8
2017-12-16T09:09:47.554Z,1004.8
2017-12-16T09:10:49.177Z,1004.9
2017-12-16T09:11:51.584Z,1005.0
2017-12-16T09:12:55.122Z,1004.9
2017-12-16T09:13:56.740Z,1004.9
2017-12-16T09:14:58.363Z,1005.0
2017-12-16T09:15:59.977Z,1005.0
2017-12-16T09:17:01.594Z,1004.9
2017-12-16T09:18:03.799Z,1005.0
2017-12-16T09:19:05.413Z,1005.0
2017-12-16T09:20:07.034Z,1005.0
2017-12-16T09:21:08.697Z,1005.0
2017-12-16T09:22:10.317Z,1005.1
2017-12-16T09:23:12.475Z,1005.1
2017-12-16T09:24:14.091Z,1005.2
2017-12-16T09:25:15.714Z,1005.3
2017-12-16T09:26:17.332Z,1005.3
2017-12-16T09:27:18.954Z,1005.3
2017-12-16T09:28:20.572Z,1005.3
2017-12-16T09:29:22.730Z,1005.4
2017-12-16T09:30:24.347Z,1005.4
2017-12-16T09:31:25.965Z,1005.4
2017-12-16T09:32:27.583Z,1005.6
2017-12-16T09:33:29.201Z,1005.6
2017-12-16T09:34:31.404Z,1005.6
2017-12-16T09:35:33.021Z,1005.5
2017-12-16T09:36:34.639Z,1005.5
2017-12-16T09:37:36.259Z,1005.5
2017-12-16T09:38:37.877Z,1005.4
2017-12-16T09:39:39.772Z,1005.5
2017-12-16T09:40:41.391Z,1005.5
2017-12-16T09:41:43.009Z,1005.6
2017-12-16T09:42:44.628Z,1005.6
2017-12-16T09:43:46.248Z,1005.7
2017-12-16T09:44:47.868Z,1005.6
2017-12-16T09:45:49.486Z,1005.6
2017-12-16T09:46:51.106Z,1005.7
2017-12-16T09:47:52.900Z,1005.7
2017-12-16T09:48:54.820Z,1005.8
2017-12-16T09:49:56.440Z,1005.7
2017-12-16T09:50:58.065Z,1005.5
2017-12-16T09:51:59.678Z,1005.5
2017-12-16T09:53:01.829Z,1005.6
2017-12-16T09:54:03.447Z,1005.6
2017-12-16T09:55:05.645Z,1005.6
2017-12-16T09:56:07.697Z,1005.6
2017-12-16T09:57:09.980Z,1005.6
2017-12-16T09:58:11.668Z,1005.5
2017-12-16T09:59:13.289Z,1005.6
2017-12-16T10:00:14.939Z,1005.6
2017-12-16T10:01:16.566Z,1005.7
2017-12-16T10:02:18.183Z,1005.7
2017-12-16T10:03:19.812Z,1005.7
2017-12-16T10:04:21.625Z,1005.8
2017-12-16T10:05:23.437Z,1005.8
2017-12-16T10:06:25.171Z,1005.8
2017-12-16T10:07:27.176Z,1005.8
2017-12-16T10:08:28.797Z,1005.8
2017-12-16T10:09:30.550Z,1005.8
2017-12-16T10:10:32.167Z,1005.8
2017-12-16T10:11:33.812Z,1005.9
2017-12-16T10:12:35.606Z,1005.9
2017-12-16T10:13:37.532Z,1005.7
2017-12-16T10:14:39.167Z,1005.6
2017-12-16T10:15:40.932Z,1005.5
2017-12-16T10:16:42.915Z,1005.6
2017-12-16T10:17:44.858Z,1005.7
2017-12-16T10:18:46.487Z,1005.6
2017-12-16T10:19:48.451Z,1005.7
2017-12-16T10:20:50.162Z,1005.8
2017-12-16T10:21:51.965Z,1005.8
2017-12-16T10:22:53.595Z,1005.9
2017-12-16T10:23:55.310Z,1005.9
2017-12-16T10:24:56.943Z,1005.7
2017-12-16T10:25:58.622Z,1005.7
2017-12-16T10:27:00.194Z,1005.7
2017-12-16T10:28:03.519Z,1005.7
2017-12-16T10:29:05.488Z,1005.8
2017-12-16T10:30:07.200Z,1005.9
2017-12-16T10:31:09.268Z,1006.1
2017-12-16T10:32:11.444Z,1006.2
2017-12-16T10:33:13.664Z,1006.3
2017-12-16T10:34:15.299Z,1006.3
2017-12-16T10:35:17.738Z,1006.2
2017-12-16T10:36:19.364Z,1006.1
2017-12-16T10:37:20.994Z,1006.2
2017-12-16T10:38:22.627Z,1006.2
2017-12-16T10:39:24.426Z,1006.1
2017-12-16T10:40:26.167Z,1006.0
2017-12-16T10:41:27.874Z,1006.0
2017-12-16T10:42:29.607Z,1005.9
2017-12-16T10:43:31.488Z,1005.9
2017-12-16T10:44:33.451Z,1005.9
2017-12-16T10:45:35.129Z,1005.9
2017-12-16T10:46:36.895Z,1005.9
2017-12-16T10:47:38.504Z,1005.9
2017-12-16T10:48:41.677Z,1005.9
2017-12-16T10:49:43.763Z,1005.9
2017-12-16T10:50:45.256Z,1006.0
2017-12-16T10:51:47.100Z,1006.0
2017-12-16T10:52:49.320Z,1006.0
2017-12-16T10:53:50.965Z,1006.0
2017-12-16T10:54:52.600Z,1006.1
2017-12-16T10:55:54.211Z,1006.0
2017-12-16T10:56:55.853Z,1006.0
2017-12-16T10:57:57.742Z,1006.0
2017-12-16T10:58:59.355Z,1006.0
2017-12-16T11:00:01.176Z,1006.0
2017-12-16T11:01:02.985Z,1006.0
2017-12-16T11:02:04.666Z,1006.0
2017-12-16T11:03:06.644Z,1006.1
2017-12-16T11:04:08.364Z,1006.2
2017-12-16T11:05:09.996Z,1006.2
2017-12-16T11:06:11.711Z,1006.3
2017-12-16T11:07:13.370Z,1006.4
2017-12-16T11:08:15.182Z,1006.4
2017-12-16T11:09:16.905Z,1006.6
2017-12-16T11:10:18.546Z,1006.7
2017-12-16T11:11:20.261Z,1006.6
2017-12-16T11:12:22.260Z,1006.6
2017-12-16T11:13:24.009Z,1006.5
2017-12-16T11:14:25.749Z,1006.5
2017-12-16T11:15:27.408Z,1006.3
2017-12-16T11:16:29.053Z,1006.2
2017-12-16T11:17:30.731Z,1006.2
2017-12-16T11:18:32.395Z,1006.2
2017-12-16T11:19:34.143Z,1006.2
2017-12-16T11:20:35.803Z,1006.3
2017-12-16T11:21:37.441Z,1006.4
2017-12-16T11:22:39.253Z,1006.6
2017-12-16T11:23:40.939Z,1006.6
2017-12-16T11:24:42.649Z,1006.5
2017-12-16T11:25:46.089Z,1006.5
2017-12-16T11:26:47.786Z,1006.4
2017-12-16T11:27:49.517Z,1006.4
2017-12-16T11:28:51.131Z,1006.5
2017-12-16T11:29:52.750Z,1006.5
2017-12-16T11:30:54.371Z,1006.5
2017-12-16T11:31:55.997Z,1006.4
2017-12-16T11:32:57.665Z,1006.4
2017-12-16T11:33:59.277Z,1006.4
2017-12-16T11:35:00.899Z,1006.5
2017-12-16T11:36:03.386Z,1006.7
2017-12-16T11:37:05.055Z,1006.7
2017-12-16T11:38:06.681Z,1006.7
2017-12-16T11:39:08.299Z,1006.6
2017-12-16T11:40:09.919Z,1006.6
2017-12-16T11:41:11.536Z,1006.6
2017-12-16T11:42:13.154Z,1006.9
2017-12-16T11:43:14.768Z,1006.8
2017-12-16T11:44:16.393Z,1006.7
2017-12-16T11:45:18.011Z,1006.5
2017-12-16T11:46:19.626Z,1006.7
2017-12-16T11:47:22.877Z,1007.0
2017-12-16T11:48:24.691Z,1006.9
2017-12-16T11:49:26.342Z,1006.7
2017-12-16T11:50:28.034Z,1006.4
2017-12-16T11:51:29.705Z,1006.3
2017-12-16T11:52:31.314Z,1006.2
2017-12-16T11:53:33.061Z,1006.3
2017-12-16T11:54:34.689Z,1006.4
2017-12-16T11:55:36.303Z,1006.4
2017-12-16T11:56:37.929Z,1006.2
2017-12-16T11:57:39.546Z,1006.4
2017-12-16T11:58:41.167Z,1006.5
2017-12-16T11:59:42.787Z,1006.2
2017-12-16T12:00:44.404Z,1006.2
2017-12-16T12:01:46.022Z,1006.4
2017-12-16T12:02:47.640Z,1006.7
2017-12-16T12:03:49.262Z,1006.8
2017-12-16T12:04:50.883Z,1006.9
2017-12-16T12:05:52.499Z,1006.9
2017-12-16T12:06:54.117Z,1007.0
2017-12-16T12:07:55.735Z,1006.8
2017-12-16T12:08:57.353Z,1007.0
2017-12-16T12:09:58.971Z,1007.0
2017-12-16T12:11:00.594Z,1006.9
2017-12-16T12:12:02.209Z,1006.9
2017-12-16T12:13:03.828Z,1006.9
2017-12-16T12:14:05.450Z,1006.9
2017-12-16T12:15:07.066Z,1006.9
2017-12-16T12:16:08.682Z,1007.0
2017-12-16T12:17:10.298Z,1006.9
2017-12-16T12:18:11.919Z,1006.8
2017-12-16T12:19:13.538Z,1006.9
2017-12-16T12:20:15.155Z,1007.1
2017-12-16T12:21:16.774Z,1007.0
2017-12-16T12:22:18.395Z,1007.0
2017-12-16T12:23:20.013Z,1007.1
2017-12-16T12:24:21.632Z,1007.1
2017-12-16T12:25:23.252Z,1007.1
2017-12-16T12:26:24.870Z,1007.0
2017-12-16T12:27:26.487Z,1007.0
2017-12-16T12:28:28.105Z,1007.0
2017-12-16T12:29:29.725Z,1007.0
2017-12-16T12:30:31.343Z,1007.0
2017-12-16T12:31:32.974Z,1007.0
2017-12-16T12:32:34.602Z,1006.8
2017-12-16T12:33:36.222Z,1006.7
2017-12-16T12:34:37.843Z,1006.7
2017-12-16T12:35:39.463Z,1006.8
2017-12-16T12:36:41.080Z,1006.7
2017-12-16T12:37:42.697Z,1006.8
2017-12-16T12:38:44.320Z,1006.8
2017-12-16T12:39:45.935Z,1006.6
2017-12-16T12:40:47.552Z,1006.5
2017-12-16T12:41:49.170Z,1006.5
2017-12-16T12:42:50.791Z,1006.7
2017-12-16T12:43:52.411Z,1006.9
2017-12-16T12:44:54.025Z,1007.0
2017-12-16T12:45:55.740Z,1006.9
2017-12-16T12:46:57.279Z,1006.6
2017-12-16T12:47:59.037Z,1006.6
2017-12-16T12:49:00.657Z,1006.7
2017-12-16T12:50:02.276Z,1006.6
2017-12-16T12:51:04.236Z,1006.7
2017-12-16T12:52:06.059Z,1006.9
2017-12-16T12:53:07.615Z,1006.8
2017-12-16T12:54:09.233Z,1006.9
2017-12-16T12:55:10.855Z,1006.9
2017-12-16T12:56:14.229Z,1006.8